createdAt,value
2019-01-24T00:03:02.571Z,-8.55
2019-01-24T00:06:30.841Z,-8.41
2019-01-24T00:18:02.214Z,-8.85
2019-01-24T00:27:14.106Z,-8.99
2019-01-24T00:29:57.095Z,-9.08
2019-01-24T00:33:16.775Z,-9.18
2019-01-24T00:40:11.433Z,-9.31
2019-01-24T00:46:41.005Z,-8.97
2019-01-24T00:50:01.457Z,-8.89
2019-01-24T00:53:07.821Z,-8.61
2019-01-24T00:59:12.802Z,-8.69
2019-01-24T01:06:11.770Z,-8.63
2019-01-24T01:09:15.551Z,-8.46
2019-01-24T01:12:39.247Z,-8.42
2019-01-24T01:17:30.559Z,-8.47
2019-01-24T01:25:26.280Z,-8.36
2019-01-24T01:28:08.712Z,-8.38
2019-01-24T01:31:57.003Z,-7.92
2019-01-24T01:38:17.668Z,-8.32
2019-01-24T01:40:27.422Z,-8.47
2019-01-24T01:43:12.322Z,-8.60
2019-01-24T01:46:28.216Z,-8.80
2019-01-24T01:49:26.459Z,-8.64
2019-01-24T01:52:47.974Z,-8.90
2019-01-24T02:02:54.773Z,-9.38
2019-01-24T02:08:55.412Z,-9.62
2019-01-24T02:12:27.894Z,-9.52
2019-01-24T02:18:11.298Z,-9.46
2019-01-24T02:24:55.285Z,-9.52
2019-01-24T02:30:08.878Z,-9.50
2019-01-24T02:33:52.832Z,-9.55
2019-01-24T02:37:34.624Z,-9.69
2019-01-24T02:41:16.226Z,-9.76
2019-01-24T02:47:21.974Z,-9.78
2019-01-24T02:49:54.831Z,-10.06
2019-01-24T02:55:03.340Z,-10.14
2019-01-24T02:55:56.067Z,-10.13
2019-01-24T02:59:01.989Z,-10.13
2019-01-24T03:05:08.968Z,-9.92
2019-01-24T03:07:48.631Z,-9.94
2019-01-24T03:10:48.159Z,-9.82
2019-01-24T03:13:36.282Z,-9.89
2019-01-24T03:16:21.041Z,-10.19
2019-01-24T03:19:11.116Z,-10.40
2019-01-24T03:21:49.424Z,-10.56
2019-01-24T03:24:35.231Z,-10.69
2019-01-24T03:34:10.630Z,-11.01
2019-01-24T03:37:29.372Z,-11.00
2019-01-24T03:40:56.594Z,-10.98
2019-01-24T03:47:02.920Z,-10.96
2019-01-24T03:50:14.815Z,-11.13
2019-01-24T03:53:40.612Z,-11.24
2019-01-24T04:00:24.546Z,-11.33
2019-01-24T04:03:12.747Z,-11.29
2019-01-24T04:10:02.396Z,-10.90
2019-01-24T04:12:11.907Z,-10.74
2019-01-24T04:15:13.657Z,-10.57
2019-01-24T04:18:19.272Z,-10.65
2019-01-24T04:21:12.205Z,-10.69
2019-01-24T04:24:21.634Z,-10.75
2019-01-24T04:27:18.371Z,-10.82
2019-01-24T04:31:10.512Z,-10.85
2019-01-24T04:33:21.417Z,-10.82
2019-01-24T04:37:50.596Z,-10.84
2019-01-24T04:38:55.259Z,-10.93
2019-01-24T04:41:53.243Z,-10.81
2019-01-24T04:44:28.811Z,-10.77
2019-01-24T04:47:20.613Z,-10.80
2019-01-24T04:50:16.411Z,-10.75
2019-01-24T04:53:01.391Z,-10.77
2019-01-24T04:55:37.852Z,-10.80
2019-01-24T04:58:08.698Z,-10.93
2019-01-24T05:01:02.509Z,-11.04
2019-01-24T05:07:46.336Z,-11.19
2019-01-24T05:10:13.798Z,-11.23
2019-01-24T05:13:14.067Z,-11.10
2019-01-24T05:19:27.020Z,-11.31
2019-01-24T05:22:19.276Z,-11.37
2019-01-24T05:25:06.508Z,-11.42
2019-01-24T05:32:05.414Z,-11.61
2019-01-24T05:35:10.260Z,-11.77
2019-01-24T05:48:21.952Z,-11.46
2019-01-24T05:54:46.817Z,-11.56
2019-01-24T05:57:53.943Z,-11.44
2019-01-24T06:02:06.991Z,-11.43
2019-01-24T06:04:18.958Z,-11.61
2019-01-24T06:08:05.025Z,-11.76
2019-01-24T06:10:29.393Z,-11.77
2019-01-24T06:13:32.136Z,-11.85
2019-01-24T06:19:45.479Z,-11.86
2019-01-24T06:22:51.387Z,-11.87
2019-01-24T06:25:46.472Z,-11.85
2019-01-24T06:28:41.386Z,-11.99
2019-01-24T06:31:32.988Z,-11.81
2019-01-24T06:34:19.418Z,-11.89
2019-01-24T06:37:22.290Z,-11.97
2019-01-24T06:41:33.605Z,-11.95
2019-01-24T06:44:00.283Z,-11.95
2019-01-24T06:46:35.529Z,-11.81
2019-01-24T06:49:43.104Z,-11.80
2019-01-24T06:52:35.858Z,-11.75
2019-01-24T06:55:41.079Z,-11.82
2019-01-24T06:58:54.540Z,-11.94
2019-01-24T07:01:52.676Z,-11.96
2019-01-24T07:04:25.641Z,-12.04
2019-01-24T07:07:27.114Z,-12.10
2019-01-24T07:10:14.801Z,-11.91
2019-01-24T07:13:01.416Z,-11.97
2019-01-24T07:16:18.739Z,-12.02
2019-01-24T07:18:51.335Z,-12.05
2019-01-24T07:21:59.413Z,-12.15
2019-01-24T07:24:56.477Z,-12.11
2019-01-24T07:27:53.210Z,-11.98
2019-01-24T07:31:06.430Z,-11.83
2019-01-24T07:33:47.419Z,-11.78
2019-01-24T07:36:48.516Z,-11.78
2019-01-24T07:39:48.211Z,-11.75
2019-01-24T07:42:32.964Z,-11.80
2019-01-24T07:45:20.615Z,-11.81
2019-01-24T07:47:57.593Z,-11.82
2019-01-24T07:50:47.995Z,-11.68
2019-01-24T07:53:46.092Z,-11.62
2019-01-24T07:57:02.426Z,-11.55
2019-01-24T08:03:01.953Z,-11.31
2019-01-24T08:10:07.641Z,-10.98
2019-01-24T08:12:17.580Z,-10.77
2019-01-24T08:15:25.854Z,-10.54
2019-01-24T08:18:36.702Z,-10.38
2019-01-24T08:21:09.110Z,-10.22
2019-01-24T08:23:52.445Z,-10.13
2019-01-24T08:26:45.925Z,-10.05
2019-01-24T08:29:32.956Z,-9.86
2019-01-24T08:32:21.008Z,-9.80
2019-01-24T08:41:58.336Z,-9.27
2019-01-24T08:51:32.902Z,-9.13
2019-01-24T08:54:25.783Z,-8.92
2019-01-24T08:57:25.035Z,-8.75
2019-01-24T09:00:16.422Z,-8.63
2019-01-24T09:03:14.114Z,-8.37
2019-01-24T09:06:34.614Z,-8.38
2019-01-24T09:09:42.312Z,-8.28
2019-01-24T09:12:59.931Z,-8.17
2019-01-24T09:17:56.152Z,-7.91
2019-01-24T09:20:28.856Z,-7.82
2019-01-24T09:23:00.549Z,-7.69
2019-01-24T09:25:34.023Z,-7.61
2019-01-24T09:28:23.957Z,-7.40
2019-01-24T09:30:55.673Z,-7.06
2019-01-24T09:33:29.543Z,-6.95
2019-01-24T09:36:00.042Z,-6.86
2019-01-24T09:38:31.306Z,-6.69
2019-01-24T09:41:03.965Z,-6.58
2019-01-24T09:43:45.806Z,-6.56
2019-01-24T09:46:25.590Z,-6.50
2019-01-24T09:49:12.985Z,-6.47
2019-01-24T09:52:06.124Z,-6.38
2019-01-24T09:54:40.718Z,-6.27
2019-01-24T09:57:48.667Z,-6.16
2019-01-24T10:00:39.711Z,-6.04
2019-01-24T10:03:22.319Z,-5.91
2019-01-24T10:06:14.213Z,-5.73
2019-01-24T10:12:11.973Z,-5.55
2019-01-24T10:18:21.593Z,-5.00
2019-01-24T10:24:57.258Z,-4.59
2019-01-24T10:27:27.494Z,-4.31
2019-01-24T10:33:39.863Z,-3.61
2019-01-24T10:36:49.261Z,-3.14
2019-01-24T10:47:19.692Z,-2.58
2019-01-24T11:04:44.895Z,-1.02
2019-01-24T11:20:44.025Z,0.59
2019-01-24T11:27:54.781Z,0.31
2019-01-24T11:39:41.242Z,0.59
2019-01-24T11:41:12.042Z,-0.14
2019-01-24T11:55:28.245Z,-0.39
2019-01-24T12:04:25.266Z,-0.27
2019-01-24T12:17:58.651Z,-1.43
2019-01-24T12:32:33.559Z,-2.50
2019-01-24T12:39:48.151Z,-2.96
2019-01-24T12:54:02.248Z,-3.48
2019-01-24T12:59:59.929Z,-3.40
2019-01-24T13:09:44.491Z,-3.63
2019-01-24T13:13:08.066Z,-3.51
2019-01-24T13:19:45.109Z,-3.26
2019-01-24T13:29:07.946Z,-3.52
2019-01-24T13:33:36.074Z,-3.64
2019-01-24T13:39:55.422Z,-4.14
2019-01-24T13:46:35.774Z,-4.37
2019-01-24T13:50:31.129Z,-4.48
2019-01-24T14:13:47.723Z,-5.73
2019-01-24T14:17:55.230Z,-5.97
2019-01-24T14:24:09.666Z,-6.13
2019-01-24T14:27:17.490Z,-6.33
2019-01-24T14:36:30.869Z,-6.84
2019-01-24T14:52:17.785Z,-7.51
2019-01-24T14:53:38.062Z,-7.66
2019-01-24T14:57:07.167Z,-7.82
2019-01-24T15:00:20.246Z,-8.00
2019-01-24T15:08:54.146Z,-7.92
2019-01-24T15:10:58.252Z,-8.16
2019-01-24T15:25:04.969Z,-8.63
2019-01-24T15:28:11.137Z,-8.67
2019-01-24T15:31:30.966Z,-8.89
2019-01-24T15:37:57.324Z,-9.27
2019-01-24T15:47:12.438Z,-9.54
2019-01-24T15:49:36.751Z,-9.50
2019-01-24T15:52:41.718Z,-9.65
2019-01-24T15:55:28.954Z,-9.78
2019-01-24T15:58:16.104Z,-9.86
2019-01-24T16:03:56.047Z,-9.66
2019-01-24T16:06:58.237Z,-9.69
2019-01-24T16:10:04.692Z,-9.62
2019-01-24T16:16:09.056Z,-10.03
2019-01-24T16:19:07.176Z,-10.11
2019-01-24T16:21:56.959Z,-10.19
2019-01-24T16:25:14.094Z,-10.17
2019-01-24T16:28:24.487Z,-10.18
2019-01-24T16:30:59.553Z,-10.39
2019-01-24T16:33:35.547Z,-10.42
2019-01-24T16:36:25.326Z,-10.29
2019-01-24T16:39:14.473Z,-10.28
2019-01-24T16:44:50.214Z,-10.49
2019-01-24T16:47:34.950Z,-10.61
2019-01-24T16:51:00.636Z,-10.62
2019-01-24T16:53:59.179Z,-10.61
2019-01-24T16:56:34.097Z,-10.48
2019-01-24T16:59:22.943Z,-10.69
2019-01-24T17:01:52.935Z,-10.78
2019-01-24T17:04:25.814Z,-10.86
2019-01-24T17:06:56.616Z,-10.92
2019-01-24T17:09:36.493Z,-10.87
2019-01-24T17:12:31.226Z,-10.85
2019-01-24T17:15:19.843Z,-10.71
2019-01-24T17:17:58.340Z,-10.87
2019-01-24T17:20:47.747Z,-10.96
2019-01-24T17:23:14.504Z,-11.02
2019-01-24T17:25:52.789Z,-10.95
2019-01-24T17:28:28.408Z,-11.05
2019-01-24T17:31:03.728Z,-11.06
2019-01-24T17:33:36.932Z,-11.12
2019-01-24T17:36:09.316Z,-11.18
2019-01-24T17:38:48.639Z,-11.17
2019-01-24T17:41:26.983Z,-11.20
2019-01-24T17:43:59.412Z,-11.24
2019-01-24T17:46:31.118Z,-11.28
2019-01-24T17:49:25.450Z,-11.30
2019-01-24T17:52:01.759Z,-11.35
2019-01-24T17:54:43.038Z,-11.37
2019-01-24T17:57:30.866Z,-11.32
2019-01-24T18:00:43.746Z,-11.36
2019-01-24T18:03:29.864Z,-11.41
2019-01-24T18:06:18.034Z,-11.33
2019-01-24T18:08:56.234Z,-11.43
2019-01-24T18:14:35.969Z,-11.47
2019-01-24T18:17:24.376Z,-11.39
2019-01-24T18:21:11.762Z,-11.43
2019-01-24T18:23:10.824Z,-11.45
2019-01-24T18:25:48.861Z,-11.48
2019-01-24T18:28:24.005Z,-11.48
2019-01-24T18:30:59.398Z,-11.44
2019-01-24T18:33:37.181Z,-11.29
2019-01-24T18:36:11.369Z,-11.39
2019-01-24T18:38:58.130Z,-11.47
2019-01-24T18:41:54.420Z,-11.53
2019-01-24T18:44:31.629Z,-11.59
2019-01-24T18:47:05.491Z,-11.63
2019-01-24T18:49:46.679Z,-11.56
2019-01-24T18:52:41.706Z,-11.61
2019-01-24T18:55:18.302Z,-11.52
2019-01-24T19:01:30.961Z,-11.24
2019-01-24T19:04:15.043Z,-11.45
2019-01-24T19:06:50.387Z,-11.54
2019-01-24T19:09:28.152Z,-11.57
2019-01-24T19:12:00.332Z,-11.63
2019-01-24T19:14:34.527Z,-11.70
2019-01-24T19:17:08.249Z,-11.75
2019-01-24T19:19:53.502Z,-11.78
2019-01-24T19:22:23.583Z,-11.82
2019-01-24T19:25:00.450Z,-11.84
2019-01-24T19:27:31.487Z,-11.84
2019-01-24T19:30:02.617Z,-11.75
2019-01-24T19:32:34.167Z,-11.69
2019-01-24T19:35:07.923Z,-11.72
2019-01-24T19:37:47.004Z,-11.75
2019-01-24T19:40:22.961Z,-11.75
2019-01-24T19:43:02.922Z,-11.86
2019-01-24T19:45:41.639Z,-11.89
2019-01-24T19:48:15.862Z,-11.90
2019-01-24T19:50:57.039Z,-11.92
2019-01-24T19:53:37.292Z,-12.01
2019-01-24T19:56:20.190Z,-12.04
2019-01-24T19:58:49.470Z,-12.07
2019-01-24T20:01:25.652Z,-12.11
2019-01-24T20:04:00.099Z,-12.08
2019-01-24T20:06:33.070Z,-12.04
2019-01-24T20:09:08.034Z,-12.09
2019-01-24T20:11:54.295Z,-12.14
2019-01-24T20:14:31.388Z,-12.16
2019-01-24T20:17:24.262Z,-12.13
2019-01-24T20:20:06.094Z,-12.16
2019-01-24T20:22:37.742Z,-12.13
2019-01-24T20:25:16.528Z,-12.16
2019-01-24T20:27:48.737Z,-12.17
2019-01-24T20:30:25.330Z,-12.17
2019-01-24T20:33:02.318Z,-12.13
2019-01-24T20:35:56.248Z,-12.08
2019-01-24T20:38:30.911Z,-12.01
2019-01-24T20:41:24.225Z,-11.76
2019-01-24T20:43:59.527Z,-11.72
2019-01-24T20:46:40.555Z,-11.61
2019-01-24T20:49:35.219Z,-11.55
2019-01-24T20:52:13.252Z,-11.48
2019-01-24T20:54:45.492Z,-11.38
2019-01-24T20:57:16.744Z,-11.28
2019-01-24T21:00:13.359Z,-11.19
2019-01-24T21:02:58.254Z,-11.10
2019-01-24T21:05:36.893Z,-10.98
2019-01-24T21:08:08.831Z,-10.80
2019-01-24T21:10:45.503Z,-10.64
2019-01-24T21:13:27.159Z,-10.57
2019-01-24T21:16:04.755Z,-10.46
2019-01-24T21:18:46.045Z,-10.28
2019-01-24T21:21:39.162Z,-10.15
2019-01-24T21:24:12.828Z,-10.09
2019-01-24T21:26:49.709Z,-9.99
2019-01-24T21:29:36.853Z,-9.94
2019-01-24T21:32:59.714Z,-9.93
2019-01-24T21:39:22.164Z,-9.87
2019-01-24T21:41:56.252Z,-9.77
2019-01-24T21:56:53.315Z,-9.41
2019-01-24T22:16:55.234Z,-9.44
2019-01-24T22:20:58.046Z,-9.43
2019-01-24T22:43:34.469Z,-9.31
2019-01-24T22:47:13.852Z,-9.50
2019-01-24T22:50:14.123Z,-9.71
2019-01-24T22:52:51.506Z,-9.63
2019-01-24T22:55:54.856Z,-9.56
2019-01-24T22:58:48.342Z,-9.55
2019-01-24T23:02:46.309Z,-9.36
2019-01-24T23:05:50.585Z,-9.20
2019-01-24T23:08:19.003Z,-9.24
2019-01-24T23:11:11.375Z,-9.27
2019-01-24T23:14:27.794Z,-9.13
2019-01-24T23:17:14.225Z,-9.11
2019-01-24T23:20:12.586Z,-9.02
2019-01-24T23:23:20.566Z,-8.93
2019-01-24T23:32:48.765Z,-8.86
2019-01-24T23:35:34.154Z,-8.82
2019-01-24T23:38:54.506Z,-8.80
2019-01-24T23:41:59.678Z,-8.80
2019-01-24T23:45:24.316Z,-8.76
2019-01-24T23:48:25.319Z,-8.76
2019-01-24T23:51:16.512Z,-8.87
2019-01-24T23:54:21.137Z,-8.76
2019-01-24T23:57:12.635Z,-8.41
